Terminal Aerodrome Forecast
Issued by NWS Upton, NY

Home | Current Version | Previous Version | Text Only | Print | Product List | Glossary On
Versions: 1 2 3 4 5 6 7 8 9 10 11 12 13 14 15 16 17 18 19 20 21 22 23 24 25 26 27 28 29 30 31 32 33 34 35
000
FTUS41 KOKX 250538
TAFJFK
TAF
KJFK 250538Z 2506/2612 31012KT P6SM FEW080 FEW250
     FM250900 32004KT P6SM FEW080 FEW250
     FM251700 22008KT P6SM SCT080
     FM252000 21012G18KT P6SM SCT080
     FM252300 25015G21KT P6SM SCT060
     FM260300 28011KT P6SM SCT060
     FM261000 28007KT P6SM SKC=

USA.gov is the U.S. government's official web portal to all federal, state and local government web resources and services.